Relevés horaires Monte Rosa-Plattje (Suisse)


Relevés horaires à Monte Rosa-Plattje - Lundi 28 Déc. 2020
Heure UTC1 Température [°C] Vent [km/h] Hum. [%] Pres.4 [hPa] Visi. [Km] Nébu. [octa] Préc.5 [mm] Cond.
2m. Res. Ros. Dir.2 Vit. Moy. Raf.3
23:00 -12.2 -19.4 -16.9 SSE 14.8 -- 51.9 68 700(1.2/3h) -- -- -- --
22:00 -12.3 -15.9 -14.3 NNE 5.6 -- 70.4 85 700(1.7/3h) -- -- -- --
21:00 -10.9 -19.1 -18.5 ESE 20.4 -- 83.3 53 700(0.6/3h) -- -- -- --
20:00 -10.8 -21 -18.8 SO 33.3 -- 83.3 52 700(0.7/3h) -- -- -- --
19:00 -11.6 -23.2 -18.9 SSO 42.6 -- 75.9 55 700(0.1/3h) -- -- -- --
18:00 -13.0 -13.0 -20.7 NO 3.7 -- 90.7 52 700(1.0/3h) -- -- -- --
17:00 -13.2 -17 -20.2 ENE 5.6 -- 22.2 55 700(1.7/3h) -- -- -- --
16:00 -13.1 -21 -22.0 OSO 16.7 -- 29.6 47 700(1.7/3h) -- -- -- --
15:00 -12.6 -12.6 -18.0 NNO 3.7 -- 90.7 64 700(0.9/3h) -- -- -- --
14:00 -12.3 -22.2 -23.0 OSO 27.8 -- 90.7 40 700(-0.5/3h) -- -- -- --
13:00 -11.5 -21.9 -21.5 OSO 33.3 -- 63.0 43 700(-0.8/3h) -- -- -- --
12:00 -11.2 -19.5 -20.7 O 20.4 -- 64.8 45 700(-0.7/3h) -- -- -- --
11:00 -11.2 -17.1 -16.9 O 11.1 -- 33.3 63 700(-0.1/3h) -- -- -- --
10:00 -9.3 -9.3 -15.2 ENE 3.7 -- 37.0 62 700(-0.2/3h) -- -- -- --
09:00 -9.4 -9.4 -14.7 SE 3.7 -- 22.2 65 700(-0.5/3h) -- -- -- --
08:00 -10.1 -13.4 -13.7 N 5.6 -- 22.2 75 700(-1.5/3h) -- -- -- --
07:00 -9.9 -14.1 -12.0 NE 7.4 -- 14.8 85 700(-1.9/3h) -- -- -- --
06:00 -9.9 -16.1 -11.9 E 13.0 -- 96.3 85 700(-2.3/3h) -- -- -- --
05:00 -9.1 -17.1 -12.6 O 22.2 -- 57.4 76 700(-2.2/3h) -- -- -- --
04:00 -8.2 -18.4 -13.7 SSO 40.7 -- 83.3 64 700(-1.8/3h) -- -- -- --
03:00 -8.3 -18.8 -14.7 SSO 42.6 -- 96.3 60 700(-2.0/3h) -- -- -- --
02:00 -8.8 -16 -14.5 SO 18.5 -- 57.4 63 700(-2.2/3h) -- -- -- --
01:00 -8.8 -18.2 -13.8 SSO 31.5 -- 96.3 67 700(-3.0/3h) -- -- -- --
00:00 -7.5 -14.4 -14.3 S 18.5 -- 103.7 58 700(-2.2/3h) -- -- -- --

1 Coordinated Universal Time. Actuellement il est 03:00 locale et 01:00 UTC.

2 Le vent souffle depuis la direction indiquée vers la direction oposée.

3 Les rafales max. sont disponible 40 min après l'heure du relevé.

4 Pour les stations d'altitude (plus de 600m) le géopotentiel du niveau le plus proche de la pression obligatoire est indiqué.

5 Les stations disposant d'un diffuseur peuvent indiquer "trace". Cela signifie que des précipitations ont touchés le sol mais que la quantité est inférieure à 0.1 mm.

Copyright

Les données affichées sur cette page sont la propriété exclusive de Météo Suisse.

Récapitulatif de la journée
Température [°C] Vent [km/h] Ensoleillement4 [h] Precipitations totale5 [mm] Pression [Hpa]
Min1 Max.2 Moy.3 Max. Min Max.
-10.0 -9.3 0 103.7 0 h 0 min 0 700.0 700.0

1 Température minimale relevée entre 18:00 UTC la veille et 18:00 UTC le jour donné.

2 Température maximale relevée entre 06:00 UTC le jour donné et 06:00 UTC le lendemain.

3 Vent moyen de la journée basé sur les relevés horaires.

4 Ensoleillement en heures relevé entre 06:00 UTC la veille et 06:00 UTC le jour donné.

5 Précipitations totales tombées entre 06:00 UTC la jour donné et 06:00 UTC le lendemain.

Graphiques horaires